Time;durP1;ratioP1;P1;durP2;ratioP2;P2;SDS_P1;SDS_P2;PMS_P1;PMS_P2;Temp;Humidity;BMP_temperature;BMP_pressure;BME280_temperature;BME280_humidity;BME280_pressure;Samples;Min_cycle;Max_cycle;Signal;HPM_P1;HPM_P2
2023/09/25 00:00:52;;;;;;;2.10;0.80;;;13.60;99.90;;;;;;5092569;28;20035;-73
2023/09/25 00:03:18;;;;;;;3.35;1.00;;;13.50;99.90;;;;;;5094421;28;20093;-73
2023/09/25 00:05:46;;;;;;;1.95;0.93;;;13.50;99.90;;;;;;5092516;28;20020;-73
2023/09/25 00:08:12;;;;;;;2.05;0.95;;;13.40;99.90;;;;;;5098264;27;20024;-73
2023/09/25 00:10:38;;;;;;;1.92;0.55;;;13.40;99.90;;;;;;5091583;28;20036;-73
2023/09/25 00:13:04;;;;;;;1.45;0.60;;;13.30;99.90;;;;;;5098760;28;20054;-73
2023/09/25 00:15:31;;;;;;;1.50;0.65;;;13.20;99.90;;;;;;5099584;28;20450;-73
2023/09/25 00:17:57;;;;;;;2.00;1.00;;;13.50;99.90;;;;;;5090614;28;20038;-73
2023/09/25 00:20:24;;;;;;;1.48;0.57;;;13.40;99.90;;;;;;5095050;28;20028;-73
2023/09/25 00:22:51;;;;;;;1.92;0.90;;;13.40;99.90;;;;;;5094835;27;20039;-73
2023/09/25 00:25:22;;;;;;;2.45;0.80;;;13.40;99.90;;;;;;5090756;28;20031;-73
2023/09/25 00:27:48;;;;;;;2.13;0.90;;;13.40;99.90;;;;;;5094038;28;20024;-73
2023/09/25 00:30:14;;;;;;;1.67;0.52;;;13.40;99.90;;;;;;5094583;28;20063;-73
2023/09/25 00:32:40;;;;;;;2.15;0.70;;;13.40;99.90;;;;;;5092231;28;20106;-73
2023/09/25 00:35:10;;;;;;;1.77;0.65;;;13.30;99.90;;;;;;5091907;28;20431;-73
2023/09/25 00:37:37;;;;;;;2.88;0.85;;;12.80;99.90;;;;;;5093756;28;20016;-73
2023/09/25 00:40:12;;;;;;;1.80;0.77;;;12.80;99.90;;;;;;5102353;28;20783;-73
2023/09/25 00:42:45;;;;;;;2.30;0.95;;;13.00;99.90;;;;;;5092746;28;20416;-73
2023/09/25 00:45:10;;;;;;;1.77;0.68;;;13.10;99.90;;;;;;5097518;28;20414;-73
2023/09/25 00:47:41;;;;;;;2.35;0.90;;;13.10;99.90;;;;;;5094656;28;20024;-73
2023/09/25 00:50:08;;;;;;;1.33;0.52;;;13.20;99.90;;;;;;5092873;28;20429;-73
2023/09/25 00:52:35;;;;;;;1.38;0.70;;;13.30;99.90;;;;;;5097563;28;20383;-73
2023/09/25 00:55:03;;;;;;;2.15;0.68;;;13.10;99.90;;;;;;5093326;28;20402;-73
2023/09/25 00:57:29;;;;;;;1.58;0.70;;;13.00;99.90;;;;;;5092741;28;20047;-73
2023/09/25 00:59:55;;;;;;;1.40;0.63;;;12.90;99.90;;;;;;5097892;27;20126;-73
2023/09/25 01:02:22;;;;;;;2.60;1.10;;;13.00;99.90;;;;;;5094044;28;20032;-73
2023/09/25 01:04:48;;;;;;;1.80;0.77;;;13.10;99.90;;;;;;5096174;28;20036;-73
2023/09/25 01:07:17;;;;;;;2.25;0.70;;;13.00;99.90;;;;;;5088430;28;20119;-73
2023/09/25 01:09:42;;;;;;;1.02;0.50;;;13.00;99.90;;;;;;5109267;27;20032;-73
2023/09/25 01:12:08;;;;;;;1.63;0.55;;;12.90;99.90;;;;;;5091173;28;20166;-73
2023/09/25 01:14:34;;;;;;;1.85;0.80;;;13.00;99.90;;;;;;5092955;28;20596;-73
2023/09/25 01:17:00;;;;;;;2.65;1.08;;;13.00;99.90;;;;;;5090898;28;20032;-73
2023/09/25 01:19:26;;;;;;;2.20;0.60;;;12.90;99.90;;;;;;5091026;28;20031;-73
2023/09/25 01:21:52;;;;;;;1.40;0.73;;;12.70;99.90;;;;;;5090947;27;20035;-73
2023/09/25 01:24:18;;;;;;;1.70;0.80;;;12.60;99.90;;;;;;5095853;27;20028;-73
2023/09/25 01:26:43;;;;;;;2.70;1.08;;;12.50;99.90;;;;;;5090167;28;20023;-73
2023/09/25 01:29:09;;;;;;;6.10;1.00;;;12.50;99.90;;;;;;5094166;28;20038;-73
2023/09/25 01:31:36;;;;;;;2.05;0.80;;;12.50;99.90;;;;;;5091819;28;20089;-73
2023/09/25 01:34:01;;;;;;;1.88;0.55;;;12.50;99.90;;;;;;5091534;28;20028;-73
2023/09/25 01:36:27;;;;;;;2.25;0.80;;;12.50;99.90;;;;;;5094173;27;20094;-73
2023/09/25 01:38:53;;;;;;;3.47;0.90;;;12.50;99.90;;;;;;5098123;28;20034;-73
2023/09/25 01:41:18;;;;;;;1.33;0.57;;;12.60;99.90;;;;;;5091935;28;20032;-73
2023/09/25 01:43:44;;;;;;;3.15;0.77;;;12.60;99.90;;;;;;5092015;27;20138;-73
2023/09/25 01:46:10;;;;;;;1.65;0.60;;;12.70;99.90;;;;;;5092653;28;20039;-73
2023/09/25 01:48:36;;;;;;;2.80;0.80;;;12.50;99.90;;;;;;5098611;28;20077;-73
2023/09/25 01:51:11;;;;;;;1.92;0.85;;;12.60;99.90;;;;;;5104302;27;20028;-73
2023/09/25 01:53:37;;;;;;;3.65;0.73;;;12.60;99.90;;;;;;5090603;28;20516;-73
2023/09/25 01:56:12;;;;;;;2.97;0.80;;;12.40;99.90;;;;;;5089235;28;20028;-73
2023/09/25 01:58:41;;;;;;;1.42;0.60;;;12.20;99.90;;;;;;5090674;28;20028;-73
2023/09/25 02:01:07;;;;;;;3.83;0.80;;;12.30;99.90;;;;;;5092303;28;20023;-73
2023/09/25 02:03:32;;;;;;;1.48;0.60;;;12.20;99.90;;;;;;5096070;28;20020;-73
2023/09/25 02:05:58;;;;;;;3.45;0.80;;;12.10;99.90;;;;;;5093000;28;20027;-73
2023/09/25 02:08:24;;;;;;;2.13;0.88;;;12.10;99.90;;;;;;5092476;27;20036;-73
2023/09/25 02:10:49;;;;;;;2.85;0.80;;;12.00;99.90;;;;;;5091622;28;20056;-73
2023/09/25 02:13:15;;;;;;;2.70;0.70;;;11.90;99.90;;;;;;5089523;28;20474;-73
2023/09/25 02:15:41;;;;;;;1.45;0.50;;;11.90;99.90;;;;;;5090616;27;20030;-73
2023/09/25 02:18:07;;;;;;;2.80;0.63;;;12.00;99.90;;;;;;5089450;28;20081;-73
2023/09/25 02:20:34;;;;;;;3.88;1.35;;;11.70;99.90;;;;;;5090763;28;20036;-73
2023/09/25 02:23:00;;;;;;;2.42;0.70;;;11.90;99.90;;;;;;5089059;28;20050;-73
2023/09/25 02:25:26;;;;;;;1.83;0.70;;;12.00;99.90;;;;;;5093290;28;20028;-73
2023/09/25 02:27:51;;;;;;;1.35;0.80;;;12.00;99.90;;;;;;5088890;28;20359;-73
2023/09/25 02:30:17;;;;;;;1.88;0.80;;;12.00;99.90;;;;;;5100260;28;20463;-73
2023/09/25 02:32:43;;;;;;;2.33;0.98;;;12.10;99.90;;;;;;5092381;28;20035;-73
2023/09/25 02:35:10;;;;;;;1.50;0.65;;;12.00;99.90;;;;;;5093474;28;20028;-73
2023/09/25 02:37:37;;;;;;;1.92;0.75;;;12.40;99.90;;;;;;5090350;28;20385;-73
2023/09/25 02:40:06;;;;;;;2.10;0.80;;;12.80;99.90;;;;;;5099499;28;20381;-73
2023/09/25 02:42:33;;;;;;;1.67;0.80;;;12.70;99.90;;;;;;5096064;28;20139;-73
2023/09/25 02:44:58;;;;;;;2.08;0.65;;;12.30;99.90;;;;;;5088845;28;20042;-73
2023/09/25 02:47:24;;;;;;;1.83;0.60;;;12.20;99.90;;;;;;5089403;28;20031;-73
2023/09/25 02:49:49;;;;;;;2.53;1.00;;;12.30;99.90;;;;;;5098222;28;20505;-73
2023/09/25 02:52:15;;;;;;;2.55;0.90;;;12.40;99.90;;;;;;5089127;28;20428;-73
2023/09/25 02:54:41;;;;;;;2.47;0.98;;;12.30;99.90;;;;;;5090589;28;20024;-73
2023/09/25 02:57:07;;;;;;;2.72;1.02;;;12.20;99.90;;;;;;5100401;28;20461;-73
2023/09/25 02:59:32;;;;;;;1.65;0.70;;;12.10;99.90;;;;;;5090562;28;20074;-73
2023/09/25 03:01:58;;;;;;;2.80;1.20;;;12.30;99.90;;;;;;5093341;28;20063;-73
2023/09/25 03:04:24;;;;;;;1.05;0.50;;;12.40;99.90;;;;;;5090205;27;20465;-74
2023/09/25 03:06:50;;;;;;;3.08;1.17;;;12.50;99.90;;;;;;5088913;28;20432;-73
2023/09/25 03:09:16;;;;;;;5.40;1.52;;;12.30;99.90;;;;;;5086680;28;20032;-73
2023/09/25 03:11:42;;;;;;;2.20;0.90;;;12.30;99.90;;;;;;5084411;28;20028;-73
2023/09/25 03:14:08;;;;;;;3.90;1.17;;;12.40;99.90;;;;;;5083674;28;20036;-73
2023/09/25 03:16:34;;;;;;;3.58;0.93;;;12.30;99.90;;;;;;5085859;28;20036;-74
2023/09/25 03:18:59;;;;;;;3.15;0.57;;;12.50;99.90;;;;;;5082115;28;20060;-73
2023/09/25 03:21:25;;;;;;;4.13;0.75;;;12.40;99.90;;;;;;5080596;28;20079;-73
2023/09/25 03:23:51;;;;;;;2.20;0.80;;;12.50;99.90;;;;;;5082903;28;20032;-73
2023/09/25 03:26:18;;;;;;;2.45;0.90;;;12.60;99.90;;;;;;5084740;28;20103;-73
2023/09/25 03:28:45;;;;;;;2.40;0.65;;;12.40;99.90;;;;;;5088832;28;20545;-74
2023/09/25 03:31:12;;;;;;;3.22;0.95;;;12.40;99.90;;;;;;5084672;28;20046;-73
2023/09/25 03:33:39;;;;;;;2.10;0.80;;;12.40;99.90;;;;;;5083276;28;20128;-73
2023/09/25 03:36:05;;;;;;;2.45;1.17;;;12.10;99.90;;;;;;5083559;28;20093;-73
2023/09/25 03:38:31;;;;;;;1.75;0.65;;;11.80;99.90;;;;;;5083458;28;20028;-73
2023/09/25 03:40:57;;;;;;;1.25;0.60;;;12.00;99.90;;;;;;5085352;28;20111;-73
2023/09/25 03:43:23;;;;;;;1.65;0.60;;;12.10;99.90;;;;;;5084370;28;20123;-73
2023/09/25 03:45:49;;;;;;;2.28;0.75;;;12.00;99.90;;;;;;5082558;28;20902;-73
2023/09/25 03:48:14;;;;;;;0.98;0.65;;;12.00;99.90;;;;;;5083525;28;20051;-74
2023/09/25 03:50:40;;;;;;;3.85;0.95;;;12.00;99.90;;;;;;5089241;28;20032;-73
2023/09/25 03:53:06;;;;;;;2.17;0.68;;;12.20;99.90;;;;;;5088242;28;20111;-74
2023/09/25 03:55:32;;;;;;;3.60;1.02;;;12.20;99.90;;;;;;5084285;28;20115;-73
2023/09/25 03:57:58;;;;;;;1.90;0.90;;;12.10;99.90;;;;;;5083852;28;20125;-73
2023/09/25 04:00:26;;;;;;;2.65;0.98;;;12.10;99.90;;;;;;5085083;28;20024;-73
2023/09/25 04:02:52;;;;;;;1.77;0.95;;;12.00;99.90;;;;;;5085509;28;20059;-73
2023/09/25 04:05:18;;;;;;;2.25;0.90;;;12.10;99.90;;;;;;5080860;28;20139;-73
2023/09/25 04:07:44;;;;;;;1.77;0.63;;;12.00;99.90;;;;;;5091351;28;20115;-73
2023/09/25 04:10:10;;;;;;;1.30;0.65;;;12.10;99.90;;;;;;5085490;28;20621;-73
2023/09/25 04:12:37;;;;;;;3.45;0.93;;;12.20;99.90;;;;;;5083785;28;20484;-73
2023/09/25 04:15:12;;;;;;;2.38;0.70;;;12.20;99.90;;;;;;5083168;28;20028;-73
2023/09/25 04:17:38;;;;;;;2.03;0.60;;;12.30;99.90;;;;;;5083471;28;20020;-73
2023/09/25 04:20:17;;;;;;;3.03;0.75;;;12.20;99.90;;;;;;5082936;28;20031;-73
2023/09/25 04:22:45;;;;;;;6.15;1.08;;;12.20;99.90;;;;;;5087565;28;20309;-73
2023/09/25 04:25:20;;;;;;;4.88;1.15;;;12.30;99.90;;;;;;5091449;28;20382;-73
2023/09/25 04:27:47;;;;;;;3.13;1.23;;;12.30;99.90;;;;;;5087371;28;20027;-73
2023/09/25 04:30:15;;;;;;;2.53;1.00;;;12.20;99.90;;;;;;5087263;28;20051;-73
2023/09/25 04:32:48;;;;;;;1.75;0.73;;;12.00;99.90;;;;;;5081479;28;20077;-73
2023/09/25 04:35:15;;;;;;;2.88;1.08;;;11.70;99.90;;;;;;5083630;28;20489;-73
2023/09/25 04:37:42;;;;;;;3.38;0.90;;;11.60;99.90;;;;;;5087191;28;20042;-73
2023/09/25 04:40:15;;;;;;;2.45;1.05;;;11.40;99.90;;;;;;5090658;28;20088;-73
2023/09/25 04:42:42;;;;;;;3.00;0.68;;;11.80;99.90;;;;;;5086438;27;20126;-73
2023/09/25 04:45:16;;;;;;;2.10;1.00;;;11.70;99.90;;;;;;5093333;27;20031;-73
2023/09/25 04:47:42;;;;;;;1.65;0.75;;;11.60;99.90;;;;;;5087599;28;20055;-73
2023/09/25 04:50:09;;;;;;;2.33;0.70;;;11.70;99.90;;;;;;5086612;28;20039;-73
2023/09/25 04:52:44;;;;;;;2.58;1.02;;;11.60;99.90;;;;;;5086294;28;20032;-73
2023/09/25 04:55:12;;;;;;;2.65;1.38;;;11.70;99.90;;;;;;5089965;28;20032;-73
2023/09/25 04:57:42;;;;;;;2.38;0.95;;;11.90;99.90;;;;;;5091310;28;20030;-73
2023/09/25 05:00:21;;;;;;;4.85;1.48;;;12.00;99.90;;;;;;5087225;28;20028;-73
2023/09/25 05:02:48;;;;;;;3.08;0.75;;;12.00;99.90;;;;;;5088926;28;20047;-73
2023/09/25 05:05:15;;;;;;;2.65;1.00;;;12.10;99.90;;;;;;5086206;27;20036;-73
2023/09/25 05:07:42;;;;;;;2.50;0.95;;;12.20;99.90;;;;;;5095091;27;20064;-73
2023/09/25 05:10:12;;;;;;;2.78;0.95;;;12.20;99.90;;;;;;5091474;28;20640;-73
2023/09/25 05:12:39;;;;;;;1.83;0.75;;;12.30;99.90;;;;;;5091512;28;20036;-73
2023/09/25 05:15:07;;;;;;;2.42;1.00;;;12.30;99.90;;;;;;5097287;27;20026;-73
2023/09/25 05:17:37;;;;;;;3.40;1.25;;;12.20;99.90;;;;;;5091321;28;20165;-74
2023/09/25 05:20:18;;;;;;;2.08;0.88;;;12.30;99.90;;;;;;5097459;28;21217;-73
2023/09/25 05:22:49;;;;;;;2.30;0.82;;;12.30;99.90;;;;;;5086810;28;20133;-74
2023/09/25 05:25:16;;;;;;;3.17;1.00;;;12.30;99.90;;;;;;5088897;28;20062;-73
2023/09/25 05:27:45;;;;;;;2.78;1.00;;;12.40;99.90;;;;;;5094561;27;20051;-73
2023/09/25 05:30:11;;;;;;;2.70;0.98;;;12.30;99.90;;;;;;5095034;28;20071;-73
2023/09/25 05:32:42;;;;;;;1.80;0.68;;;12.30;99.90;;;;;;5089983;28;20028;-74
2023/09/25 05:35:09;;;;;;;6.65;1.30;;;12.20;99.90;;;;;;5094616;28;20058;-73
2023/09/25 05:37:35;;;;;;;1.85;0.73;;;12.30;99.90;;;;;;5082727;28;20035;-73
2023/09/25 05:40:02;;;;;;;2.53;1.00;;;12.40;99.90;;;;;;5082437;28;20477;-73
2023/09/25 05:42:29;;;;;;;2.58;0.98;;;12.30;99.90;;;;;;5083691;28;20043;-74
2023/09/25 05:44:55;;;;;;;3.15;1.05;;;12.20;99.90;;;;;;5087795;28;20031;-73
2023/09/25 05:47:21;;;;;;;2.35;1.00;;;12.00;99.90;;;;;;5085578;28;20050;-73
2023/09/25 05:49:47;;;;;;;2.03;0.70;;;12.10;99.90;;;;;;5082552;28;20131;-74
2023/09/25 05:52:13;;;;;;;1.33;0.60;;;12.10;99.90;;;;;;5090650;28;20038;-73
2023/09/25 05:54:39;;;;;;;3.80;1.00;;;11.90;99.90;;;;;;5084204;28;21062;-73
2023/09/25 05:57:08;;;;;;;2.17;0.85;;;12.00;99.90;;;;;;5086459;28;20130;-73
2023/09/25 05:59:34;;;;;;;3.20;0.93;;;12.20;99.90;;;;;;5088991;28;20047;-73
2023/09/25 06:02:00;;;;;;;2.80;1.10;;;12.20;99.90;;;;;;5081174;28;20473;-74
2023/09/25 06:04:26;;;;;;;1.98;0.73;;;12.10;99.90;;;;;;5082295;28;20028;-73
2023/09/25 06:06:52;;;;;;;2.33;1.10;;;12.10;99.90;;;;;;5083109;28;20456;-73
2023/09/25 06:09:19;;;;;;;4.13;0.85;;;12.20;99.90;;;;;;5083112;28;20265;-73
2023/09/25 06:11:45;;;;;;;1.95;0.88;;;12.20;99.90;;;;;;5085041;28;20031;-74
2023/09/25 06:14:10;;;;;;;3.35;1.23;;;12.10;99.90;;;;;;5092013;28;20034;-74
2023/09/25 06:16:36;;;;;;;1.92;0.73;;;12.10;99.90;;;;;;5097229;28;20442;-74
2023/09/25 06:19:03;;;;;;;2.28;0.95;;;12.00;99.90;;;;;;5087968;28;20024;-75
2023/09/25 06:21:30;;;;;;;2.45;1.00;;;12.10;99.90;;;;;;5090370;28;20032;-75
2023/09/25 06:23:56;;;;;;;4.57;1.13;;;12.20;99.90;;;;;;5090261;28;20028;-74
2023/09/25 06:26:23;;;;;;;1.98;0.90;;;12.20;99.90;;;;;;5090286;28;20024;-75
2023/09/25 06:28:50;;;;;;;0.90;0.60;;;11.90;99.90;;;;;;5089388;28;20114;-74
2023/09/25 06:31:16;;;;;;;1.83;0.73;;;12.00;99.90;;;;;;5247454;22;20047;-71
2023/09/25 06:33:42;;;;;;;2.10;0.85;;;12.00;99.90;;;;;;5006807;28;20037;-77
2023/09/25 06:36:08;;;;;;;4.18;0.88;;;12.00;99.90;;;;;;5149655;22;21149;-83
2023/09/25 06:38:34;;;;;;;2.25;0.93;;;12.10;99.90;;;;;;5011286;28;20013;-80
2023/09/25 06:41:01;;;;;;;3.03;0.95;;;12.00;99.90;;;;;;5005871;28;20057;-79
2023/09/25 06:43:27;;;;;;;2.15;0.98;;;12.00;99.90;;;;;;5006813;28;20542;-81
2023/09/25 06:45:53;;;;;;;2.33;1.10;;;12.10;99.90;;;;;;5003198;28;20671;-81
2023/09/25 06:48:19;;;;;;;2.13;0.68;;;12.20;99.90;;;;;;5003332;28;20048;-80
2023/09/25 06:50:44;;;;;;;1.73;0.77;;;12.30;99.90;;;;;;5009986;28;20037;-79
2023/09/25 06:53:10;;;;;;;1.90;0.80;;;12.50;99.90;;;;;;4979557;28;20798;-79
2023/09/25 06:55:39;;;;;;;1.88;1.00;;;12.30;99.90;;;;;;5003998;28;20026;-79
2023/09/25 06:58:05;;;;;;;1.15;0.60;;;12.40;99.90;;;;;;5005007;28;20036;-79
2023/09/25 07:00:31;;;;;;;3.28;0.85;;;12.50;99.90;;;;;;5007024;28;20034;-79
2023/09/25 07:02:57;;;;;;;2.30;0.65;;;12.50;99.90;;;;;;5006025;28;20029;-79
2023/09/25 07:05:22;;;;;;;1.75;0.77;;;12.50;99.90;;;;;;5010433;28;20025;-79
2023/09/25 07:07:50;;;;;;;2.00;0.82;;;12.70;99.90;;;;;;5007128;28;20135;-79
2023/09/25 07:10:16;;;;;;;2.05;0.60;;;12.70;99.90;;;;;;5005274;28;20390;-79
2023/09/25 07:12:42;;;;;;;4.80;0.88;;;12.80;99.90;;;;;;5009472;28;20066;-77
2023/09/25 07:15:09;;;;;;;1.45;0.80;;;12.90;99.90;;;;;;5009262;28;20069;-77
2023/09/25 07:17:34;;;;;;;3.17;1.40;;;12.90;99.90;;;;;;5007254;28;20042;-77
2023/09/25 07:20:00;;;;;;;2.13;1.08;;;13.00;99.90;;;;;;5009402;28;20034;-77
2023/09/25 07:22:27;;;;;;;2.22;0.88;;;13.00;99.90;;;;;;4998715;28;20037;-77
2023/09/25 07:24:54;;;;;;;2.55;0.95;;;13.10;99.90;;;;;;5000603;28;20503;-77
2023/09/25 07:27:20;;;;;;;3.40;0.95;;;13.20;99.90;;;;;;5005781;28;20443;-78
2023/09/25 07:29:47;;;;;;;2.50;0.88;;;13.20;99.90;;;;;;5008787;28;20778;-77
2023/09/25 07:32:14;;;;;;;3.08;0.88;;;13.30;99.80;;;;;;5007644;28;20092;-77
2023/09/25 07:34:40;;;;;;;2.72;1.17;;;13.30;99.90;;;;;;5003924;28;20461;-77
2023/09/25 07:37:07;;;;;;;2.85;0.90;;;13.40;99.80;;;;;;5001048;28;20157;-77
2023/09/25 07:39:34;;;;;;;4.05;1.35;;;13.40;99.90;;;;;;4999805;28;20037;-78
2023/09/25 07:42:01;;;;;;;3.63;0.90;;;13.50;99.90;;;;;;5005927;28;20096;-78
2023/09/25 07:44:27;;;;;;;1.63;0.77;;;13.50;99.90;;;;;;5004673;28;20029;-77
2023/09/25 07:46:53;;;;;;;2.20;1.00;;;13.60;99.90;;;;;;4968748;28;20095;-78
2023/09/25 07:49:20;;;;;;;2.25;0.85;;;13.70;99.90;;;;;;5008275;28;20045;-78
2023/09/25 07:51:46;;;;;;;1.95;0.95;;;13.80;99.90;;;;;;5009364;28;20033;-77
2023/09/25 07:54:12;;;;;;;2.05;0.70;;;13.80;99.90;;;;;;5004678;28;20111;-77
2023/09/25 07:56:38;;;;;;;2.88;0.77;;;13.80;99.80;;;;;;5003841;28;20030;-77
2023/09/25 07:59:04;;;;;;;2.50;0.93;;;13.90;99.90;;;;;;5002287;28;20030;-78
2023/09/25 08:01:30;;;;;;;2.03;0.80;;;13.80;99.90;;;;;;5003068;28;20088;-78
2023/09/25 08:03:59;;;;;;;1.42;0.63;;;13.80;99.90;;;;;;5011218;28;20120;-78
2023/09/25 08:06:27;;;;;;;1.92;0.80;;;13.80;99.90;;;;;;5009322;28;20026;-77
2023/09/25 08:08:59;;;;;;;1.92;0.98;;;13.80;99.50;;;;;;5006461;28;20048;-78
2023/09/25 08:11:26;;;;;;;3.30;0.90;;;13.90;99.80;;;;;;5006697;28;20050;-77
2023/09/25 08:13:55;;;;;;;3.65;0.80;;;13.90;99.80;;;;;;5010656;28;20065;-77
2023/09/25 08:16:23;;;;;;;2.95;1.10;;;14.00;99.80;;;;;;5008369;28;20128;-77
2023/09/25 08:18:49;;;;;;;4.90;1.55;;;14.10;99.60;;;;;;5009093;28;20037;-78
2023/09/25 08:21:14;;;;;;;2.70;0.80;;;14.20;99.60;;;;;;5008499;28;20033;-78
2023/09/25 08:23:40;;;;;;;2.78;1.10;;;14.40;99.60;;;;;;5009025;28;20033;-77
2023/09/25 08:26:06;;;;;;;2.53;0.98;;;14.40;99.60;;;;;;5011141;28;20034;-78
2023/09/25 08:28:33;;;;;;;3.25;1.10;;;14.50;99.40;;;;;;5016137;28;20251;-77
2023/09/25 08:30:58;;;;;;;1.83;0.90;;;14.60;99.40;;;;;;5008302;28;20033;-77
2023/09/25 08:33:24;;;;;;;2.58;1.10;;;14.60;99.20;;;;;;5009053;28;20022;-77
2023/09/25 08:35:51;;;;;;;2.42;0.88;;;14.70;99.40;;;;;;5009058;28;20379;-77
2023/09/25 08:38:16;;;;;;;3.88;1.17;;;14.70;99.00;;;;;;5006502;28;20132;-78
2023/09/25 08:40:51;;;;;;;3.33;1.00;;;14.80;98.70;;;;;;5009997;28;20128;-78
2023/09/25 08:43:18;;;;;;;1.58;0.77;;;14.80;98.90;;;;;;5012047;28;20591;-77
2023/09/25 08:45:45;;;;;;;2.25;0.95;;;15.00;99.00;;;;;;5008628;28;20396;-77
2023/09/25 08:48:11;;;;;;;1.65;0.70;;;15.00;98.30;;;;;;5014389;28;20044;-77
2023/09/25 08:50:39;;;;;;;3.20;0.85;;;15.10;98.10;;;;;;5008591;28;20026;-78
2023/09/25 08:53:06;;;;;;;3.17;0.90;;;15.00;97.70;;;;;;5008526;28;20115;-77
2023/09/25 08:55:33;;;;;;;1.65;0.70;;;15.10;98.10;;;;;;5006242;28;20032;-78
2023/09/25 08:58:00;;;;;;;4.70;0.80;;;15.20;98.40;;;;;;5010007;28;20029;-77
2023/09/25 09:00:29;;;;;;;1.23;0.70;;;15.20;97.70;;;;;;5008293;28;20038;-77
2023/09/25 09:02:54;;;;;;;1.05;0.57;;;15.50;98.10;;;;;;5009721;28;20625;-77
2023/09/25 09:05:20;;;;;;;1.73;0.73;;;15.70;98.00;;;;;;5015022;28;20108;-78
2023/09/25 09:08:02;;;;;;;1.98;0.68;;;15.60;97.40;;;;;;5007433;28;20396;-77
2023/09/25 09:10:37;;;;;;;1.85;0.98;;;15.50;97.50;;;;;;5009600;28;20029;-77
2023/09/25 09:13:13;;;;;;;2.80;0.90;;;15.70;98.50;;;;;;5006459;28;20022;-77
2023/09/25 09:15:40;;;;;;;4.40;1.27;;;15.80;97.80;;;;;;5008056;28;20030;-78
2023/09/25 09:18:25;;;;;;;2.42;0.95;;;16.00;97.70;;;;;;5008321;28;20030;-78
2023/09/25 09:20:52;;;;;;;3.08;0.90;;;16.30;95.70;;;;;;5008050;28;20442;-78
2023/09/25 09:23:17;;;;;;;1.88;0.80;;;16.70;95.60;;;;;;5006340;28;20096;-78
2023/09/25 09:25:45;;;;;;;2.05;0.75;;;17.20;96.00;;;;;;5013709;28;20471;-78
2023/09/25 09:28:11;;;;;;;1.85;1.10;;;17.30;95.80;;;;;;5017051;28;20657;-77
2023/09/25 09:30:38;;;;;;;1.95;0.68;;;17.20;96.10;;;;;;5008362;28;20030;-78
2023/09/25 09:33:07;;;;;;;1.65;0.70;;;17.20;95.60;;;;;;5007479;28;20025;-78
2023/09/25 09:35:32;;;;;;;3.70;1.10;;;17.20;95.70;;;;;;5006296;28;20026;-78
2023/09/25 09:37:58;;;;;;;3.30;0.98;;;17.40;95.90;;;;;;5005095;28;20104;-78
2023/09/25 09:40:25;;;;;;;3.10;1.08;;;17.50;96.30;;;;;;5010170;28;20036;-78
2023/09/25 09:42:54;;;;;;;3.08;0.63;;;17.40;95.70;;;;;;5016849;28;20045;-78
2023/09/25 09:45:21;;;;;;;1.98;0.80;;;17.40;96.20;;;;;;5012057;28;20037;-78
2023/09/25 09:47:49;;;;;;;1.88;0.75;;;17.40;96.30;;;;;;5004980;28;20032;-78
2023/09/25 09:50:28;;;;;;;5.90;0.77;;;17.30;96.10;;;;;;5009703;28;20108;-77
2023/09/25 09:52:56;;;;;;;2.30;0.60;;;17.40;96.90;;;;;;5011914;28;20026;-77
2023/09/25 09:55:22;;;;;;;1.77;0.55;;;17.50;96.30;;;;;;5011314;28;20083;-78
2023/09/25 09:57:50;;;;;;;2.00;0.90;;;17.40;96.90;;;;;;5005377;28;20046;-78
2023/09/25 10:00:16;;;;;;;2.17;0.88;;;17.50;96.40;;;;;;5006396;28;20025;-78
2023/09/25 10:02:43;;;;;;;2.15;1.00;;;17.40;96.90;;;;;;5016812;28;20456;-78
2023/09/25 10:05:12;;;;;;;1.70;0.68;;;17.60;97.00;;;;;;5011269;28;20022;-77
2023/09/25 10:08:06;;;;;;;2.95;0.70;;;17.50;96.90;;;;;;5008354;28;20037;-77
2023/09/25 10:10:32;;;;;;;2.53;1.10;;;17.70;97.40;;;;;;5005800;28;20026;-76
2023/09/25 10:12:58;;;;;;;3.72;1.27;;;18.00;97.20;;;;;;5005843;28;20030;-76
2023/09/25 10:15:25;;;;;;;3.13;0.90;;;17.90;96.30;;;;;;5012726;28;20029;-76
2023/09/25 10:17:53;;;;;;;2.83;0.88;;;18.00;96.60;;;;;;5013987;28;20117;-75
2023/09/25 10:20:32;;;;;;;3.30;1.00;;;18.30;99.90;;;;;;5015339;28;20029;-77
2023/09/25 10:23:09;;;;;;;1.58;0.77;;;18.30;96.20;;;;;;5006215;28;20057;-77
2023/09/25 10:25:52;;;;;;;1.65;0.55;;;18.20;96.10;;;;;;5007689;28;20026;-77
2023/09/25 10:28:21;;;;;;;1.65;0.70;;;18.30;96.20;;;;;;4988849;28;20049;-78
2023/09/25 10:30:49;;;;;;;1.92;0.85;;;18.40;95.50;;;;;;5006242;28;20235;-79
2023/09/25 10:33:17;;;;;;;3.25;0.80;;;18.60;96.00;;;;;;5010195;28;20436;-80
2023/09/25 10:35:50;;;;;;;3.10;1.10;;;18.80;96.00;;;;;;5008222;28;20025;-79
2023/09/25 10:38:21;;;;;;;2.95;0.90;;;18.90;96.00;;;;;;5012972;28;20546;-80
2023/09/25 10:40:52;;;;;;;2.03;0.60;;;18.90;95.40;;;;;;5008362;28;20104;-81
2023/09/25 10:43:19;;;;;;;2.53;1.13;;;18.80;95.00;;;;;;5013514;28;20467;-80
2023/09/25 10:45:45;;;;;;;3.72;0.93;;;19.20;95.10;;;;;;5008654;28;20033;-80
2023/09/25 10:48:12;;;;;;;1.67;0.85;;;19.10;94.80;;;;;;5004190;28;20068;-80
2023/09/25 10:50:38;;;;;;;1.40;0.68;;;19.20;95.40;;;;;;5012189;28;20025;-80
2023/09/25 10:53:06;;;;;;;2.08;0.70;;;19.20;95.40;;;;;;5005597;28;20791;-80
2023/09/25 10:55:33;;;;;;;4.15;0.90;;;19.30;95.50;;;;;;4989839;28;20185;-80
2023/09/25 10:58:03;;;;;;;2.97;0.90;;;19.30;95.10;;;;;;5009781;28;20034;-80
2023/09/25 11:00:29;;;;;;;2.72;0.90;;;19.40;94.90;;;;;;5013602;28;20025;-80
2023/09/25 11:02:55;;;;;;;3.35;0.77;;;19.30;94.00;;;;;;5005096;28;20400;-79
2023/09/25 11:05:21;;;;;;;4.63;1.25;;;19.40;95.10;;;;;;5004206;28;20030;-80
2023/09/25 11:07:47;;;;;;;4.05;1.23;;;19.40;94.30;;;;;;5012028;28;20034;-80
2023/09/25 11:10:13;;;;;;;4.38;1.27;;;19.50;94.10;;;;;;5003783;28;20109;-80
2023/09/25 11:12:40;;;;;;;2.28;0.80;;;19.50;93.80;;;;;;5008814;28;20022;-81
2023/09/25 11:15:27;;;;;;;3.15;1.20;;;19.60;93.90;;;;;;5007046;28;20060;-79
2023/09/25 11:17:59;;;;;;;1.55;0.82;;;19.80;94.50;;;;;;5001314;28;20041;-81
2023/09/25 11:20:33;;;;;;;5.32;1.23;;;19.70;94.20;;;;;;5003808;28;20128;-80
2023/09/25 11:23:15;;;;;;;6.22;2.22;;;19.90;94.70;;;;;;5002210;28;20139;-81
2023/09/25 11:25:43;;;;;;;1.52;0.82;;;20.10;94.50;;;;;;5003592;28;20487;-80
2023/09/25 11:28:13;;;;;;;3.42;1.20;;;20.20;94.10;;;;;;5005688;28;20042;-80
2023/09/25 11:30:40;;;;;;;3.17;0.68;;;20.30;95.10;;;;;;5004320;28;20186;-80
2023/09/25 11:33:09;;;;;;;2.85;1.38;;;20.40;94.40;;;;;;5005876;28;20034;-81
2023/09/25 11:35:39;;;;;;;3.42;1.20;;;20.20;93.10;;;;;;5003322;28;20026;-80
2023/09/25 11:38:21;;;;;;;3.65;1.20;;;20.20;94.10;;;;;;4991913;28;20046;-80
2023/09/25 11:40:50;;;;;;;2.65;0.98;;;20.30;93.70;;;;;;4986013;28;20026;-80
2023/09/25 11:43:16;;;;;;;4.43;1.00;;;20.50;94.20;;;;;;4985702;28;20034;-80
2023/09/25 11:45:42;;;;;;;2.80;0.95;;;20.20;93.80;;;;;;4984633;28;20164;-80
2023/09/25 11:48:10;;;;;;;4.75;0.80;;;20.50;94.10;;;;;;4983931;28;20062;-79
2023/09/25 11:50:36;;;;;;;3.28;0.80;;;20.60;94.90;;;;;;4987844;28;20037;-80
2023/09/25 11:53:02;;;;;;;1.83;0.80;;;20.70;93.70;;;;;;4985337;28;20035;-80
2023/09/25 11:55:29;;;;;;;2.85;1.10;;;20.60;93.10;;;;;;4995265;28;20034;-80
2023/09/25 11:57:55;;;;;;;1.40;0.60;;;20.70;93.40;;;;;;4982255;28;20034;-79
2023/09/25 12:00:27;;;;;;;3.30;1.00;;;20.60;93.50;;;;;;4984014;28;20034;-80
2023/09/25 12:02:53;;;;;;;2.10;0.88;;;20.90;94.60;;;;;;4989160;28;20061;-78
2023/09/25 12:05:20;;;;;;;3.42;0.85;;;21.00;93.40;;;;;;4982859;28;20116;-79
2023/09/25 12:07:47;;;;;;;4.45;0.90;;;21.20;94.30;;;;;;4989178;28;20022;-79
2023/09/25 12:10:17;;;;;;;2.72;0.75;;;21.20;94.00;;;;;;4983534;28;20034;-79
2023/09/25 12:12:44;;;;;;;3.00;0.80;;;21.20;94.90;;;;;;4982597;28;20025;-79
2023/09/25 12:15:12;;;;;;;5.05;0.90;;;21.30;94.00;;;;;;4989728;28;20021;-79
2023/09/25 12:17:38;;;;;;;1.05;0.55;;;21.40;93.40;;;;;;4984733;28;20037;-79
2023/09/25 12:20:15;;;;;;;4.43;1.00;;;21.40;93.10;;;;;;4982474;28;20037;-79
2023/09/25 12:22:45;;;;;;;4.50;1.20;;;21.30;93.40;;;;;;4984504;28;20077;-79
2023/09/25 12:25:16;;;;;;;2.55;1.10;;;21.40;93.90;;;;;;4983497;28;20136;-79
2023/09/25 12:27:43;;;;;;;5.53;2.00;;;21.50;94.10;;;;;;4986237;28;20034;-79
2023/09/25 12:30:12;;;;;;;4.50;1.63;;;21.60;93.40;;;;;;4988770;28;20049;-79
2023/09/25 12:32:38;;;;;;;2.30;1.25;;;21.80;94.30;;;;;;4983452;28;23020;-78
2023/09/25 12:35:05;;;;;;;5.30;1.48;;;21.80;93.70;;;;;;4987814;28;20037;-79
2023/09/25 12:37:31;;;;;;;3.50;1.45;;;21.90;93.60;;;;;;4999740;28;20049;-79
2023/09/25 12:39:57;;;;;;;4.32;1.60;;;21.80;93.70;;;;;;5004105;28;20071;-79
2023/09/25 12:42:23;;;;;;;3.97;1.30;;;21.90;93.40;;;;;;5004406;28;20113;-79
2023/09/25 12:44:49;;;;;;;3.75;1.42;;;21.90;94.20;;;;;;5000891;28;20112;-79
2023/09/25 12:47:15;;;;;;;3.55;1.23;;;22.00;93.80;;;;;;5005449;28;20044;-79
2023/09/25 12:49:41;;;;;;;5.10;1.20;;;21.90;93.40;;;;;;5002307;28;20112;-78